Time;durP1;ratioP1;P1;durP2;ratioP2;P2;SDS_P1;SDS_P2;PMS_P1;PMS_P2;Temp;Humidity;BMP_temperature;BMP_pressure;BME280_temperature;BME280_humidity;BME280_pressure;Samples;Min_cycle;Max_cycle;Signal;HPM_P1;HPM_P2
2023/03/24 00:02:09;;;;;;;;;;;11.60;99.90;;;;;;5139909;27;19907;-60
2023/03/24 00:04:35;;;;;;;;;;;11.50;99.90;;;;;;5138882;27;19907;-60
2023/03/24 00:07:02;;;;;;;;;;;11.50;99.90;;;;;;5140018;27;19908;-60
2023/03/24 00:09:28;;;;;;;;;;;11.60;99.90;;;;;;5139841;27;19915;-60
2023/03/24 00:11:55;;;;;;;;;;;11.50;99.90;;;;;;5139711;27;19938;-59
2023/03/24 00:14:20;;;;;;;;;;;11.50;99.90;;;;;;5139578;27;19918;-60
2023/03/24 00:16:46;;;;;;;;;;;11.50;99.90;;;;;;5139787;27;19943;-60
2023/03/24 00:19:14;;;;;;;;;;;11.40;99.90;;;;;;5139592;27;19950;-60
2023/03/24 00:21:41;;;;;;;;;;;11.40;99.90;;;;;;5139755;27;19907;-60
2023/03/24 00:24:06;;;;;;;;;;;11.50;99.90;;;;;;5139529;27;19967;-60
2023/03/24 00:26:33;;;;;;;;;;;11.40;99.90;;;;;;5139159;27;19923;-60
2023/03/24 00:28:58;;;;;;;;;;;11.40;99.90;;;;;;5120824;27;19907;-60
2023/03/24 00:31:24;;;;;;;;;;;11.40;99.90;;;;;;5139638;27;19929;-60
2023/03/24 00:33:50;;;;;;;;;;;11.50;99.90;;;;;;5139544;27;19914;-60
2023/03/24 00:36:18;;;;;;;;;;;11.60;99.90;;;;;;5139191;27;19934;-60
2023/03/24 00:38:44;;;;;;;;;;;11.40;99.90;;;;;;5139464;27;19908;-60
2023/03/24 00:41:09;;;;;;;;;;;11.40;99.90;;;;;;5139473;27;19914;-60
2023/03/24 00:43:35;;;;;;;;;;;11.50;99.90;;;;;;5139268;27;19907;-60
2023/03/24 00:46:02;;;;;;;;;;;11.40;99.90;;;;;;5139418;28;20404;-60
2023/03/24 00:48:28;;;;;;;;;;;11.50;99.90;;;;;;5139365;28;19914;-60
2023/03/24 00:50:55;;;;;;;;;;;11.40;99.90;;;;;;5139167;28;20370;-60
2023/03/24 00:53:28;;;;;;;;;;;11.40;99.90;;;;;;5139047;28;19990;-60
2023/03/24 00:55:54;;;;;;;;;;;11.50;99.90;;;;;;5139073;28;19933;-60
2023/03/24 00:58:20;;;;;;;;;;;11.50;99.90;;;;;;5139099;28;20425;-60
2023/03/24 01:00:48;;;;;;;;;;;11.50;99.90;;;;;;5139107;28;20283;-60
2023/03/24 01:03:14;;;;;;;;;;;11.50;99.90;;;;;;5139075;28;19911;-60
2023/03/24 01:05:40;;;;;;;;;;;11.50;99.90;;;;;;5138840;28;19908;-60
2023/03/24 01:08:06;;;;;;;;;;;11.50;99.90;;;;;;5139193;28;19908;-60
2023/03/24 01:10:33;;;;;;;;;;;11.50;99.90;;;;;;5139276;28;19929;-60
2023/03/24 01:12:59;;;;;;;;;;;11.50;99.90;;;;;;5139123;28;19913;-60
2023/03/24 01:15:32;;;;;;;;;;;11.50;99.90;;;;;;5138639;27;19911;-60
2023/03/24 01:18:00;;;;;;;;;;;11.50;99.90;;;;;;5142983;27;20290;-60
2023/03/24 01:20:26;;;;;;;;;;;11.50;99.90;;;;;;5143023;27;20014;-60
2023/03/24 01:22:52;;;;;;;;;;;11.50;99.90;;;;;;5143230;27;19912;-60
2023/03/24 01:25:22;;;;;;;;;;;11.60;99.90;;;;;;5142667;27;19927;-60
2023/03/24 01:27:48;;;;;;;;;;;11.50;99.90;;;;;;5143069;27;19914;-60
2023/03/24 01:30:16;;;;;;;;;;;11.50;99.90;;;;;;5143068;27;19912;-60
2023/03/24 01:32:42;;;;;;;;;;;11.50;99.90;;;;;;5142942;27;19908;-60
2023/03/24 01:35:08;;;;;;;;;;;11.50;99.90;;;;;;5142478;27;19915;-60
2023/03/24 01:37:34;;;;;;;;;;;11.50;99.90;;;;;;5142888;27;19908;-60
2023/03/24 01:40:00;;;;;;;;;;;11.40;99.90;;;;;;5124076;27;19935;-60
2023/03/24 01:42:28;;;;;;;;;;;11.40;99.90;;;;;;5143101;27;19914;-60
2023/03/24 01:44:56;;;;;;;;;;;11.40;99.90;;;;;;5142554;27;19914;-60
2023/03/24 01:47:22;;;;;;;;;;;11.30;99.90;;;;;;5142759;27;19908;-60
2023/03/24 01:49:52;;;;;;;;;;;11.60;99.90;;;;;;5142464;27;19908;-60
2023/03/24 01:52:22;;;;;;;;;;;11.40;99.90;;;;;;5142872;27;19926;-60
2023/03/24 01:54:51;;;;;;;;;;;11.40;99.90;;;;;;5142484;27;19918;-60
2023/03/24 01:57:31;;;;;;;;;;;11.40;99.90;;;;;;5142234;27;19930;-60
2023/03/24 01:59:58;;;;;;;;;;;11.40;99.90;;;;;;5142339;27;19907;-59
2023/03/24 02:02:24;;;;;;;;;;;11.30;99.90;;;;;;5141791;27;19914;-60
2023/03/24 02:04:53;;;;;;;;;;;11.40;99.90;;;;;;5142113;27;19907;-60
2023/03/24 02:07:44;;;;;;;;;;;11.40;99.90;;;;;;5141683;27;20002;-60
2023/03/24 02:10:12;;;;;;;;;;;11.40;99.90;;;;;;5110030;27;19941;-60
2023/03/24 02:12:38;;;;;;;;;;;11.40;99.90;;;;;;5141545;27;19907;-60
2023/03/24 02:15:04;;;;;;;;;;;11.40;99.90;;;;;;5141619;27;20281;-60
2023/03/24 02:17:39;;;;;;;;;;;11.40;99.90;;;;;;5141536;27;19967;-60
2023/03/24 02:20:09;;;;;;;;;;;11.40;99.90;;;;;;5141811;27;19914;-60
2023/03/24 02:22:47;;;;;;;;;;;11.50;99.90;;;;;;5141599;27;19907;-60
2023/03/24 02:25:20;;;;;;;;;;;11.50;99.90;;;;;;5141568;27;19924;-60
2023/03/24 02:27:46;;;;;;;;;;;11.50;99.90;;;;;;5140511;27;19907;-60
2023/03/24 02:30:17;;;;;;;;;;;11.40;99.90;;;;;;5141486;27;19907;-60
2023/03/24 02:32:58;;;;;;;;;;;11.50;99.90;;;;;;5141224;27;20010;-60
2023/03/24 02:35:24;;;;;;;;;;;11.50;99.90;;;;;;5141344;27;19961;-60
2023/03/24 02:38:08;;;;;;;;;;;11.50;99.90;;;;;;5140992;27;19908;-60
2023/03/24 02:40:42;;;;;;;;;;;11.50;99.90;;;;;;5141058;27;19907;-60
2023/03/24 02:43:22;;;;;;;;;;;11.50;99.90;;;;;;5140856;27;20387;-59
2023/03/24 02:45:57;;;;;;;;;;;11.60;99.90;;;;;;5141518;27;19917;-60
2023/03/24 02:48:41;;;;;;;;;;;11.50;99.90;;;;;;5141131;27;20441;-60
2023/03/24 02:51:16;;;;;;;;;;;11.60;99.90;;;;;;5141048;27;20286;-60
2023/03/24 02:53:54;;;;;;;;;;;11.50;99.90;;;;;;5141055;27;19935;-60
2023/03/24 02:56:23;;;;;;;;;;;11.50;99.90;;;;;;5140611;27;19916;-60
2023/03/24 02:58:52;;;;;;;;;;;11.50;99.90;;;;;;5141021;27;19967;-60
2023/03/24 03:01:43;;;;;;;;;;;11.50;99.90;;;;;;5140884;27;19937;-60
2023/03/24 03:04:31;;;;;;;;;;;11.40;99.90;;;;;;5136522;27;19914;-60
2023/03/24 03:06:59;;;;;;;;;;;11.50;99.90;;;;;;5140998;27;19907;-60
2023/03/24 03:09:26;;;;;;;;;;;11.40;99.90;;;;;;5140543;27;19907;-60
2023/03/24 03:11:54;;;;;;;;;;;11.40;99.90;;;;;;5140981;27;19912;-60
2023/03/24 03:14:27;;;;;;;;;;;11.50;99.90;;;;;;5121889;27;19911;-60
2023/03/24 03:17:06;;;;;;;;;;;11.40;99.90;;;;;;5140565;27;19933;-59
2023/03/24 03:19:36;;;;;;;;;;;11.40;99.90;;;;;;5140553;27;19935;-60
2023/03/24 03:22:03;;;;;;;;;;;11.40;99.90;;;;;;5140167;27;20398;-60
2023/03/24 03:24:31;;;;;;;;;;;11.50;99.90;;;;;;5140591;27;19914;-60
2023/03/24 03:27:07;;;;;;;;;;;11.40;99.90;;;;;;5140134;27;19962;-60
2023/03/24 03:29:38;;;;;;;;;;;11.30;99.90;;;;;;5140398;27;19915;-59
2023/03/24 03:32:08;;;;;;;;;;;11.30;99.90;;;;;;5140215;27;20354;-60
2023/03/24 03:34:43;;;;;;;;;;;11.30;99.90;;;;;;5140329;27;19998;-59
2023/03/24 03:37:17;;;;;;;;;;;11.30;99.90;;;;;;5139988;27;19907;-60
2023/03/24 03:39:46;;;;;;;;;;;11.20;99.90;;;;;;5139998;27;20001;-60
2023/03/24 03:42:12;;;;;;;;;;;11.30;99.90;;;;;;5140112;27;19950;-59
2023/03/24 03:44:38;;;;;;;;;;;11.20;99.90;;;;;;5140300;27;19907;-60
2023/03/24 03:47:03;;;;;;;;;;;11.30;99.90;;;;;;5139850;27;20383;-60
2023/03/24 03:49:29;;;;;;;;;;;11.20;99.90;;;;;;5140206;27;20381;-59
2023/03/24 03:51:56;;;;;;;;;;;11.30;99.90;;;;;;5139874;27;20285;-59
2023/03/24 03:54:23;;;;;;;;;;;11.20;99.90;;;;;;5139654;27;19918;-60
2023/03/24 03:56:49;;;;;;;;;;;11.20;99.90;;;;;;5139837;27;20365;-60
2023/03/24 03:59:24;;;;;;;;;;;11.20;99.90;;;;;;5139872;27;19907;-59
2023/03/24 04:01:50;;;;;;;;;;;11.20;99.90;;;;;;5139492;27;20274;-60
2023/03/24 04:04:19;;;;;;;;;;;11.20;99.90;;;;;;5139643;27;19998;-59
2023/03/24 04:06:44;;;;;;;;;;;11.20;99.90;;;;;;5139334;27;20335;-60
2023/03/24 04:09:13;;;;;;;;;;;11.20;99.90;;;;;;5139480;27;19964;-60
2023/03/24 04:11:45;;;;;;;;;;;11.30;99.90;;;;;;5139233;27;20274;-59
2023/03/24 04:14:17;;;;;;;;;;;11.30;99.90;;;;;;5139470;27;19912;-60
2023/03/24 04:17:04;;;;;;;;;;;11.30;99.90;;;;;;5139519;27;19908;-59
2023/03/24 04:19:44;;;;;;;;;;;11.30;99.90;;;;;;5139448;27;19956;-60
2023/03/24 04:22:19;;;;;;;;;;;11.30;99.90;;;;;;5138968;27;19915;-59
2023/03/24 04:24:53;;;;;;;;;;;11.30;99.90;;;;;;5139025;27;19912;-60
2023/03/24 04:27:26;;;;;;;;;;;11.30;99.90;;;;;;5139053;27;20382;-60
2023/03/24 04:29:57;;;;;;;;;;;11.30;99.90;;;;;;5139444;27;19912;-59
2023/03/24 04:32:41;;;;;;;;;;;11.30;99.90;;;;;;5139018;27;20297;-60
2023/03/24 04:35:10;;;;;;;;;;;11.30;99.90;;;;;;5139135;27;19911;-59
2023/03/24 04:37:36;;;;;;;;;;;11.30;99.90;;;;;;5139139;27;20358;-59
2023/03/24 04:40:08;;;;;;;;;;;11.40;99.90;;;;;;5120575;27;19913;-60
2023/03/24 04:42:36;;;;;;;;;;;11.30;99.90;;;;;;5139118;27;19908;-59
2023/03/24 04:45:03;;;;;;;;;;;11.30;99.90;;;;;;5138902;27;19907;-60
2023/03/24 04:47:31;;;;;;;;;;;11.30;99.90;;;;;;5139214;28;20017;-59
2023/03/24 04:50:05;;;;;;;;;;;11.30;99.90;;;;;;5138769;28;19960;-60
2023/03/24 04:52:31;;;;;;;;;;;11.30;99.90;;;;;;5138428;28;19914;-60
2023/03/24 04:54:57;;;;;;;;;;;11.30;99.90;;;;;;5138736;28;19912;-59
2023/03/24 04:57:22;;;;;;;;;;;11.30;99.90;;;;;;5139098;28;19911;-59
2023/03/24 04:59:48;;;;;;;;;;;11.30;99.90;;;;;;5139155;28;19931;-59
2023/03/24 05:02:13;;;;;;;;;;;11.30;99.90;;;;;;5138925;28;20370;-59
2023/03/24 05:04:39;;;;;;;;;;;11.30;99.90;;;;;;5138873;28;19908;-59
2023/03/24 05:07:05;;;;;;;;;;;11.40;99.90;;;;;;5138745;28;20382;-59
2023/03/24 05:09:30;;;;;;;;;;;11.40;99.90;;;;;;5138638;28;20366;-60
2023/03/24 05:11:56;;;;;;;;;;;11.40;99.90;;;;;;5139143;28;20282;-59
2023/03/24 05:14:22;;;;;;;;;;;11.40;99.90;;;;;;5138733;28;19933;-60
2023/03/24 05:16:48;;;;;;;;;;;11.30;99.90;;;;;;5138880;28;19998;-59
2023/03/24 05:19:13;;;;;;;;;;;11.30;99.90;;;;;;5138566;28;19908;-60
2023/03/24 05:21:39;;;;;;;;;;;11.30;99.90;;;;;;5138276;28;19914;-59
2023/03/24 05:24:05;;;;;;;;;;;11.30;99.90;;;;;;5138305;28;20009;-59
2023/03/24 05:26:31;;;;;;;;;;;11.30;99.90;;;;;;5138175;28;19926;-59
2023/03/24 05:28:57;;;;;;;;;;;11.30;99.90;;;;;;5138406;28;19908;-59
2023/03/24 05:31:22;;;;;;;;;;;11.40;99.90;;;;;;5138224;28;19932;-60
2023/03/24 05:33:48;;;;;;;;;;;11.30;99.90;;;;;;5119858;28;19907;-59
2023/03/24 05:36:14;;;;;;;;;;;11.40;99.90;;;;;;5138164;28;20370;-59
2023/03/24 05:38:39;;;;;;;;;;;11.30;99.90;;;;;;5138606;28;19907;-60
2023/03/24 05:41:05;;;;;;;;;;;11.30;99.90;;;;;;5138412;28;19923;-60
2023/03/24 05:43:31;;;;;;;;;;;11.20;99.90;;;;;;5138301;28;20301;-59
2023/03/24 05:45:58;;;;;;;;;;;11.30;99.90;;;;;;5138486;28;19907;-59
2023/03/24 05:48:25;;;;;;;;;;;11.20;99.90;;;;;;5138666;28;19907;-59
2023/03/24 05:50:51;;;;;;;;;;;11.20;99.90;;;;;;5138488;28;19908;-59
2023/03/24 05:53:16;;;;;;;;;;;11.30;99.90;;;;;;5138436;28;19907;-59
2023/03/24 05:55:43;;;;;;;;;;;11.20;99.90;;;;;;5138655;28;20502;-60
2023/03/24 05:58:10;;;;;;;;;;;11.30;99.90;;;;;;5138383;28;19939;-59
2023/03/24 06:00:36;;;;;;;;;;;11.30;99.90;;;;;;5137977;28;19915;-59
2023/03/24 06:03:01;;;;;;;;;;;11.20;99.90;;;;;;5138882;27;19908;-59
2023/03/24 06:05:27;;;;;;;;;;;11.30;99.90;;;;;;5141578;27;20320;-59
2023/03/24 06:07:57;;;;;;;;;;;11.30;99.90;;;;;;5142217;27;19911;-59
2023/03/24 06:10:26;;;;;;;;;;;11.30;99.90;;;;;;5141483;27;20409;-59
2023/03/24 06:12:52;;;;;;;;;;;11.30;99.90;;;;;;5141903;27;19943;-59
2023/03/24 06:15:18;;;;;;;;;;;11.30;99.90;;;;;;5141765;27;19915;-59
2023/03/24 06:17:45;;;;;;;;;;;11.20;99.90;;;;;;5141611;27;20001;-59
2023/03/24 06:20:14;;;;;;;;;;;11.30;99.90;;;;;;5141315;27;19964;-59
2023/03/24 06:22:44;;;;;;;;;;;11.30;99.90;;;;;;5141377;27;19919;-59
2023/03/24 06:25:10;;;;;;;;;;;11.30;99.90;;;;;;5141042;27;20385;-59
2023/03/24 06:27:36;;;;;;;;;;;11.40;99.90;;;;;;5141622;27;19915;-59
2023/03/24 06:30:02;;;;;;;;;;;11.30;99.90;;;;;;5141362;27;19908;-60
2023/03/24 06:32:28;;;;;;;;;;;11.30;99.90;;;;;;5141490;27;19943;-59
2023/03/24 06:34:54;;;;;;;;;;;11.30;99.90;;;;;;5141414;27;19981;-59
2023/03/24 06:37:22;;;;;;;;;;;11.30;99.90;;;;;;5141130;27;20006;-59
2023/03/24 06:39:48;;;;;;;;;;;11.40;99.90;;;;;;5141460;27;19914;-59
2023/03/24 06:42:14;;;;;;;;;;;11.30;99.90;;;;;;5141308;27;19907;-60
2023/03/24 06:44:40;;;;;;;;;;;11.30;99.90;;;;;;5141070;27;19908;-59
2023/03/24 06:47:06;;;;;;;;;;;11.30;99.90;;;;;;5141035;27;19981;-59
2023/03/24 06:49:33;;;;;;;;;;;11.30;99.90;;;;;;5141306;27;19964;-60
2023/03/24 06:52:00;;;;;;;;;;;11.30;99.90;;;;;;5141095;27;19907;-59
2023/03/24 06:54:26;;;;;;;;;;;11.30;99.90;;;;;;5140574;27;20403;-59
2023/03/24 06:56:51;;;;;;;;;;;11.40;99.90;;;;;;5140858;27;19911;-59
2023/03/24 06:59:17;;;;;;;;;;;11.30;99.90;;;;;;5140596;27;19962;-60
2023/03/24 07:01:43;;;;;;;;;;;11.30;99.90;;;;;;5141145;27;19964;-60
2023/03/24 07:04:08;;;;;;;;;;;11.40;99.90;;;;;;5140719;27;19919;-59
2023/03/24 07:06:34;;;;;;;;;;;11.30;99.90;;;;;;5140779;27;20314;-59
2023/03/24 07:09:00;;;;;;;;;;;11.30;99.90;;;;;;5140768;27;19937;-59
2023/03/24 07:11:26;;;;;;;;;;;11.40;99.90;;;;;;5140606;27;19997;-59
2023/03/24 07:13:51;;;;;;;;;;;11.30;99.90;;;;;;5140256;27;19991;-59
2023/03/24 07:16:17;;;;;;;;;;;11.40;99.90;;;;;;5140439;27;19915;-59
2023/03/24 07:18:43;;;;;;;;;;;11.40;99.90;;;;;;5140873;27;19970;-59
2023/03/24 07:21:08;;;;;;;;;;;11.40;99.90;;;;;;5140365;27;20366;-59
2023/03/24 07:23:34;;;;;;;;;;;11.40;99.90;;;;;;5140411;27;19914;-59
2023/03/24 07:26:00;;;;;;;;;;;11.30;99.90;;;;;;5140069;27;20401;-59
2023/03/24 07:28:25;;;;;;;;;;;11.50;99.90;;;;;;5140185;27;19908;-59
2023/03/24 07:30:51;;;;;;;;;;;11.50;99.90;;;;;;5140387;27;20278;-59
2023/03/24 07:33:17;;;;;;;;;;;11.50;99.90;;;;;;5139540;27;19967;-59
2023/03/24 07:35:43;;;;;;;;;;;11.50;99.90;;;;;;5139792;27;19916;-60
2023/03/24 07:38:09;;;;;;;;;;;11.50;99.90;;;;;;5140144;27;20358;-59
2023/03/24 07:40:35;;;;;;;;;;;11.50;99.90;;;;;;5139917;27;19993;-59
2023/03/24 07:43:04;;;;;;;;;;;11.60;99.90;;;;;;5140178;27;20374;-59
2023/03/24 07:45:29;;;;;;;;;;;11.60;99.90;;;;;;5139803;27;19990;-60
2023/03/24 07:48:00;;;;;;;;;;;11.70;99.90;;;;;;5139865;27;19954;-59
2023/03/24 07:50:29;;;;;;;;;;;11.50;99.90;;;;;;5139641;27;19907;-60
2023/03/24 07:52:55;;;;;;;;;;;11.80;99.90;;;;;;5139777;27;19907;-59
2023/03/24 07:55:20;;;;;;;;;;;11.70;99.90;;;;;;5139492;27;19912;-59
2023/03/24 07:57:47;;;;;;;;;;;11.70;99.90;;;;;;5139511;27;19960;-60
2023/03/24 08:00:19;;;;;;;;;;;11.90;99.90;;;;;;5139911;27;19915;-59
2023/03/24 08:02:45;;;;;;;;;;;11.70;99.90;;;;;;5139348;27;19915;-60
2023/03/24 08:05:13;;;;;;;;;;;11.80;99.90;;;;;;5139355;27;19979;-60
2023/03/24 08:07:41;;;;;;;;;;;11.80;99.90;;;;;;5139144;27;19907;-59
2023/03/24 08:10:10;;;;;;;;;;;11.90;99.90;;;;;;5139220;27;19967;-59
2023/03/24 08:12:36;;;;;;;;;;;11.90;99.90;;;;;;5139392;27;19908;-60
2023/03/24 08:15:02;;;;;;;;;;;11.90;99.90;;;;;;5139868;27;19919;-59
2023/03/24 08:17:28;;;;;;;;;;;12.00;99.90;;;;;;5139302;27;19908;-59
2023/03/24 08:19:54;;;;;;;;;;;12.00;99.90;;;;;;5139236;27;19960;-59
2023/03/24 08:22:19;;;;;;;;;;;12.00;99.90;;;;;;5139409;27;19907;-59
2023/03/24 08:24:45;;;;;;;;;;;12.00;99.90;;;;;;5139096;27;19907;-60
2023/03/24 08:27:11;;;;;;;;;;;12.10;99.90;;;;;;5138184;27;19915;-59
2023/03/24 08:29:36;;;;;;;;;;;12.00;99.90;;;;;;5139107;27;19908;-59
2023/03/24 08:32:03;;;;;;;;;;;12.00;99.90;;;;;;5138868;27;19914;-59
2023/03/24 08:34:28;;;;;;;;;;;12.00;99.90;;;;;;5138797;27;20372;-60
2023/03/24 08:36:54;;;;;;;;;;;12.00;99.90;;;;;;5139434;27;19907;-59
2023/03/24 08:39:19;;;;;;;;;;;12.00;99.90;;;;;;5139317;27;19943;-60
2023/03/24 08:41:45;;;;;;;;;;;11.90;99.90;;;;;;5139507;27;19908;-59
2023/03/24 08:44:11;;;;;;;;;;;12.00;99.90;;;;;;5139053;27;19907;-59
2023/03/24 08:46:38;;;;;;;;;;;12.00;99.90;;;;;;5139213;27;19907;-59
2023/03/24 08:49:03;;;;;;;;;;;12.10;99.90;;;;;;5139381;28;19918;-60
2023/03/24 08:51:30;;;;;;;;;;;12.10;99.90;;;;;;5139125;28;20281;-59
2023/03/24 08:53:55;;;;;;;;;;;12.20;99.90;;;;;;5138930;28;19908;-59
2023/03/24 08:56:21;;;;;;;;;;;12.30;99.90;;;;;;5139291;28;20308;-59
2023/03/24 08:58:52;;;;;;;;;;;12.20;99.90;;;;;;5138944;28;19915;-59
2023/03/24 09:01:19;;;;;;;;;;;12.30;99.90;;;;;;5138851;28;19907;-59
2023/03/24 09:03:45;;;;;;;;;;;12.20;99.90;;;;;;5139088;28;20006;-59
2023/03/24 09:06:11;;;;;;;;;;;12.20;99.90;;;;;;5138669;28;20330;-59
2023/03/24 09:08:36;;;;;;;;;;;12.20;99.90;;;;;;5138472;28;19960;-60
2023/03/24 09:11:02;;;;;;;;;;;12.10;99.90;;;;;;5138932;28;19908;-59
2023/03/24 09:13:28;;;;;;;;;;;12.10;99.90;;;;;;5139207;28;19952;-59
2023/03/24 09:15:58;;;;;;;;;;;12.00;99.90;;;;;;5138749;28;19911;-59
2023/03/24 09:18:24;;;;;;;;;;;12.10;99.90;;;;;;5138939;28;19956;-59
2023/03/24 09:20:50;;;;;;;;;;;12.10;99.90;;;;;;5138811;28;19956;-61
2023/03/24 09:23:16;;;;;;;;;;;12.10;99.90;;;;;;5138836;28;20358;-62
2023/03/24 09:25:41;;;;;;;;;;;12.20;99.90;;;;;;5138017;28;20298;-62
2023/03/24 09:28:07;;;;;;;;;;;12.30;99.90;;;;;;5138170;28;19919;-62
2023/03/24 09:30:33;;;;;;;;;;;12.60;99.90;;;;;;5138157;28;19918;-62
2023/03/24 09:32:59;;;;;;;;;;;12.50;99.90;;;;;;5138563;28;19907;-62
2023/03/24 09:35:26;;;;;;;;;;;12.60;99.90;;;;;;5138395;28;19918;-63
2023/03/24 09:37:52;;;;;;;;;;;12.80;99.90;;;;;;5140848;27;19911;-63
2023/03/24 09:40:23;;;;;;;;;;;12.90;99.90;;;;;;5142322;27;19907;-63
2023/03/24 09:42:58;;;;;;;;;;;12.90;99.90;;;;;;5142314;27;19907;-63
2023/03/24 09:45:25;;;;;;;;;;;12.90;99.90;;;;;;5142199;27;19907;-63
2023/03/24 09:48:00;;;;;;;;;;;13.10;99.90;;;;;;5142142;27;19931;-63
2023/03/24 09:50:28;;;;;;;;;;;13.30;99.90;;;;;;5142085;27;20337;-63
2023/03/24 09:52:57;;;;;;;;;;;13.40;99.90;;;;;;5142092;27;19908;-63
2023/03/24 09:55:24;;;;;;;;;;;13.40;99.90;;;;;;5141991;27;19916;-63
2023/03/24 09:57:50;;;;;;;;;;;13.40;99.90;;;;;;5142250;27;19994;-63
2023/03/24 10:00:19;;;;;;;;;;;13.50;99.90;;;;;;5142275;27;19967;-62
2023/03/24 10:02:45;;;;;;;;;;;13.40;99.90;;;;;;5142089;27;19998;-63
2023/03/24 10:05:15;;;;;;;;;;;13.50;99.90;;;;;;5142232;27;20010;-63
2023/03/24 10:07:44;;;;;;;;;;;13.50;99.90;;;;;;5142291;27;19911;-62
2023/03/24 10:10:18;;;;;;;;;;;13.50;99.90;;;;;;5141908;27;19907;-63
2023/03/24 10:12:47;;;;;;;;;;;13.50;99.90;;;;;;5142027;27;20358;-62
2023/03/24 10:15:18;;;;;;;;;;;13.60;99.90;;;;;;5141530;27;20015;-62
2023/03/24 10:17:58;;;;;;;;;;;13.60;99.90;;;;;;5141424;27;20425;-62
2023/03/24 10:20:30;;;;;;;;;;;13.70;99.90;;;;;;5141553;27;19907;-62
2023/03/24 10:22:56;;;;;;;;;;;13.70;99.90;;;;;;5141514;27;20010;-63
2023/03/24 10:25:24;;;;;;;;;;;13.90;99.90;;;;;;5141255;27;19951;-63
2023/03/24 10:27:56;;;;;;;;;;;14.10;99.90;;;;;;5141794;27;19939;-63
2023/03/24 10:30:26;;;;;;;;;;;14.20;99.90;;;;;;5141246;27;19907;-63
2023/03/24 10:32:53;;;;;;;;;;;14.30;99.90;;;;;;5141417;27;19920;-63
2023/03/24 10:35:26;;;;;;;;;;;14.40;99.90;;;;;;5140987;27;19959;-63
2023/03/24 10:37:53;;;;;;;;;;;14.50;99.90;;;;;;5141381;27;20028;-63
2023/03/24 10:40:21;;;;;;;;;;;14.60;99.90;;;;;;5140982;27;19907;-63
2023/03/24 10:42:48;;;;;;;;;;;14.70;99.90;;;;;;5141231;27;19907;-63
2023/03/24 10:45:22;;;;;;;;;;;14.70;99.90;;;;;;5140949;27;19960;-63
2023/03/24 10:47:48;;;;;;;;;;;14.80;99.90;;;;;;5141360;27;19911;-63
2023/03/24 10:50:13;;;;;;;;;;;14.80;99.90;;;;;;5139841;27;20000;-63
2023/03/24 10:52:45;;;;;;;;;;;15.00;99.90;;;;;;5141188;27;20346;-63
2023/03/24 10:55:15;;;;;;;;;;;15.10;99.90;;;;;;5122087;27;19911;-62
2023/03/24 10:57:42;;;;;;;;;;;15.10;99.90;;;;;;5140774;27;19914;-63
2023/03/24 11:00:14;;;;;;;;;;;15.20;99.90;;;;;;5141084;27;20322;-62
2023/03/24 11:02:41;;;;;;;;;;;15.30;99.90;;;;;;5141005;27;19907;-63
2023/03/24 11:05:23;;;;;;;;;;;15.40;99.90;;;;;;5140572;27;19914;-62
2023/03/24 11:07:50;;;;;;;;;;;15.60;99.90;;;;;;5140635;27;19914;-62
2023/03/24 11:10:19;;;;;;;;;;;15.60;99.90;;;;;;5140343;27;19954;-62
2023/03/24 11:12:53;;;;;;;;;;;15.70;99.90;;;;;;5140684;27;19907;-62
2023/03/24 11:15:19;;;;;;;;;;;15.80;99.90;;;;;;5140637;27;19960;-62
2023/03/24 11:17:45;;;;;;;;;;;15.90;99.90;;;;;;5140650;27;19912;-63
2023/03/24 11:20:24;;;;;;;;;;;16.00;99.90;;;;;;5140585;27;19908;-63
2023/03/24 11:23:02;;;;;;;;;;;16.10;99.90;;;;;;5140330;27;19908;-63
2023/03/24 11:25:30;;;;;;;;;;;16.20;99.90;;;;;;5140121;27;19928;-63
2023/03/24 11:27:58;;;;;;;;;;;16.30;99.90;;;;;;5140236;27;19915;-63
2023/03/24 11:30:24;;;;;;;;;;;16.40;99.90;;;;;;5140170;27;20044;-63
2023/03/24 11:32:53;;;;;;;;;;;16.40;99.90;;;;;;5140672;27;19914;-63
2023/03/24 11:35:20;;;;;;;;;;;16.50;99.90;;;;;;5140145;27;19934;-62
2023/03/24 11:37:46;;;;;;;;;;;16.50;99.90;;;;;;5139787;27;19908;-63
2023/03/24 11:40:11;;;;;;;;;;;16.60;99.90;;;;;;5140107;27;19960;-63
2023/03/24 11:42:44;;;;;;;;;;;16.70;99.90;;;;;;5139833;27;19908;-63
2023/03/24 11:45:33;;;;;;;;;;;16.70;99.90;;;;;;5140078;27;19928;-63
2023/03/24 11:48:00;;;;;;;;;;;16.90;99.90;;;;;;5128709;27;20001;-63
2023/03/24 11:50:27;;;;;;;;;;;16.80;99.90;;;;;;5139518;27;20351;-63
2023/03/24 11:52:56;;;;;;;;;;;16.80;99.90;;;;;;5139546;27;19983;-63
2023/03/24 11:55:57;;;;;;;;;;;16.90;99.90;;;;;;5139695;27;19912;-63
2023/03/24 11:58:24;;;;;;;;;;;17.00;99.90;;;;;;5056852;28;19909;-63
2023/03/24 12:00:54;;;;;;;;;;;17.00;99.90;;;;;;5123048;27;19907;-63
2023/03/24 12:03:23;;;;;;;;;;;17.10;99.90;;;;;;5140443;27;19907;-63
2023/03/24 12:06:07;;;;;;;;;;;17.20;99.90;;;;;;5139533;27;19907;-63
2023/03/24 12:08:51;;;;;;;;;;;17.20;99.90;;;;;;5139575;27;19919;-63
2023/03/24 12:11:26;;;;;;;;;;;17.30;99.90;;;;;;5139288;27;19977;-63
2023/03/24 12:13:52;;;;;;;;;;;17.40;99.90;;;;;;5139402;27;19918;-63
2023/03/24 12:16:27;;;;;;;;;;;17.40;99.90;;;;;;5139370;27;19912;-63
2023/03/24 12:19:05;;;;;;;;;;;17.50;99.90;;;;;;5139206;27;19913;-63
2023/03/24 12:21:49;;;;;;;;;;;17.40;99.90;;;;;;5139313;27;19914;-63
2023/03/24 12:24:16;;;;;;;;;;;17.50;99.90;;;;;;5139006;27;19907;-63
2023/03/24 12:26:42;;;;;;;;;;;17.70;99.90;;;;;;5139029;27;19920;-63
2023/03/24 12:29:28;;;;;;;;;;;17.70;99.90;;;;;;5139253;27;19907;-63
2023/03/24 12:32:04;;;;;;;;;;;17.70;99.90;;;;;;5139229;27;19911;-63
2023/03/24 12:34:51;;;;;;;;;;;17.80;99.90;;;;;;5139351;27;19919;-63
2023/03/24 12:37:17;;;;;;;;;;;17.90;99.90;;;;;;5139031;27;19907;-63
2023/03/24 12:39:54;;;;;;;;;;;17.90;99.90;;;;;;5138962;27;20317;-63
2023/03/24 12:42:22;;;;;;;;;;;18.00;99.90;;;;;;5138835;27;20362;-63
2023/03/24 12:45:25;;;;;;;;;;;18.10;99.90;;;;;;5139293;27;20006;-63
2023/03/24 12:48:06;;;;;;;;;;;18.10;99.90;;;;;;5055580;28;19916;-63
2023/03/24 12:50:36;;;;;;;;;;;18.20;99.90;;;;;;5131169;28;19914;-63
2023/03/24 12:53:15;;;;;;;;;;;18.00;99.90;;;;;;5120324;28;19908;-63
2023/03/24 12:55:44;;;;;;;;;;;18.30;99.90;;;;;;5138791;28;20077;-63
2023/03/24 12:58:16;;;;;;;;;;;17.40;99.90;;;;;;5139101;28;19908;-62
2023/03/24 13:00:50;;;;;;;;;;;16.90;99.90;;;;;;5139046;28;19968;-62
2023/03/24 13:03:27;;;;;;;;;;;16.50;99.90;;;;;;5139271;28;19907;-62
2023/03/24 13:05:53;;;;;;;;;;;16.00;99.90;;;;;;5138799;28;19907;-62
2023/03/24 13:08:31;;;;;;;;;;;15.60;99.90;;;;;;5138717;28;19907;-62
2023/03/24 13:11:05;;;;;;;;;;;15.20;99.90;;;;;;5138634;28;19994;-62
2023/03/24 13:13:34;;;;;;;;;;;14.90;99.90;;;;;;5142198;27;19969;-62
2023/03/24 13:16:01;;;;;;;;;;;14.70;99.90;;;;;;5142904;27;19918;-62
2023/03/24 13:18:30;;;;;;;;;;;14.50;99.90;;;;;;5143351;27;19907;-62
2023/03/24 13:21:04;;;;;;;;;;;14.40;99.90;;;;;;5142737;27;19908;-62
2023/03/24 13:23:30;;;;;;;;;;;14.20;99.90;;;;;;5142926;27;19912;-62
2023/03/24 13:26:15;;;;;;;;;;;14.10;99.90;;;;;;5142255;27;19998;-62
2023/03/24 13:28:46;;;;;;;;;;;14.20;99.90;;;;;;5142491;27;20461;-62
2023/03/24 13:31:13;;;;;;;;;;;14.20;99.90;;;;;;5142847;27;19907;-62
2023/03/24 13:33:40;;;;;;;;;;;14.40;99.90;;;;;;5142397;27;19940;-62
2023/03/24 13:36:14;;;;;;;;;;;14.30;99.90;;;;;;5142111;27;20380;-62
2023/03/24 13:38:42;;;;;;;;;;;14.60;99.90;;;;;;5142569;27;19907;-62
2023/03/24 13:41:10;;;;;;;;;;;14.70;99.90;;;;;;5142449;27;19914;-62
2023/03/24 13:43:43;;;;;;;;;;;14.90;99.90;;;;;;5142325;27;19907;-62
2023/03/24 13:46:12;;;;;;;;;;;15.10;99.90;;;;;;5141751;27;20323;-62
2023/03/24 13:48:41;;;;;;;;;;;15.30;99.90;;;;;;5142320;27;19907;-62
2023/03/24 13:51:16;;;;;;;;;;;15.50;99.90;;;;;;5142458;27;19908;-62
2023/03/24 13:53:47;;;;;;;;;;;15.70;99.90;;;;;;5142241;27;19908;-62
2023/03/24 13:56:21;;;;;;;;;;;15.80;99.90;;;;;;5141674;27;20301;-62
2023/03/24 13:58:49;;;;;;;;;;;15.90;99.90;;;;;;5141839;27;19907;-62
2023/03/24 14:01:16;;;;;;;;;;;16.10;99.90;;;;;;5141797;27;20282;-62
2023/03/24 14:03:43;;;;;;;;;;;16.30;99.90;;;;;;5142092;27;19929;-62
2023/03/24 14:06:16;;;;;;;;;;;16.50;99.90;;;;;;5141547;27;20324;-62
2023/03/24 14:08:50;;;;;;;;;;;16.60;99.90;;;;;;5141984;27;19915;-62
2023/03/24 14:11:34;;;;;;;;;;;16.80;99.90;;;;;;5142042;27;19907;-62
2023/03/24 14:14:12;;;;;;;;;;;16.90;99.90;;;;;;5141692;27;20331;-62
2023/03/24 14:16:56;;;;;;;;;;;17.10;99.90;;;;;;5141668;27;19919;-62
2023/03/24 14:19:23;;;;;;;;;;;16.90;99.90;;;;;;5141604;27;19908;-62
2023/03/24 14:21:56;;;;;;;;;;;17.10;99.90;;;;;;5141902;27;19907;-63
2023/03/24 14:24:27;;;;;;;;;;;17.10;99.90;;;;;;5140661;27;19907;-62
2023/03/24 14:26:53;;;;;;;;;;;17.00;99.90;;;;;;5141374;27;19919;-62
2023/03/24 14:29:36;;;;;;;;;;;17.00;99.90;;;;;;5141647;27;19915;-62